sensor_id;sensor_type;location;lat;lon;timestamp;temperature;humidity
22765;DHT22;11549;50.852;3.816;2022-10-17T00:01:10;16.40;99.90
22765;DHT22;11549;50.852;3.816;2022-10-17T00:03:40;16.40;99.90
22765;DHT22;11549;50.852;3.816;2022-10-17T00:06:11;16.20;99.90
22765;DHT22;11549;50.852;3.816;2022-10-17T00:08:41;16.30;99.90
22765;DHT22;11549;50.852;3.816;2022-10-17T00:11:14;16.30;99.90
22765;DHT22;11549;50.852;3.816;2022-10-17T00:13:42;16.10;99.90
22765;DHT22;11549;50.852;3.816;2022-10-17T00:16:11;16.20;99.90
22765;DHT22;11549;50.852;3.816;2022-10-17T00:18:41;16.30;99.90
22765;DHT22;11549;50.852;3.816;2022-10-17T00:21:14;16.30;99.90
22765;DHT22;11549;50.852;3.816;2022-10-17T00:23:43;16.30;99.90
22765;DHT22;11549;50.852;3.816;2022-10-17T00:26:11;16.30;99.90
22765;DHT22;11549;50.852;3.816;2022-10-17T00:28:40;16.30;99.90
22765;DHT22;11549;50.852;3.816;2022-10-17T00:31:08;16.30;99.90
22765;DHT22;11549;50.852;3.816;2022-10-17T00:33:36;16.30;99.90
22765;DHT22;11549;50.852;3.816;2022-10-17T00:36:08;16.30;99.90
22765;DHT22;11549;50.852;3.816;2022-10-17T00:38:39;16.40;99.90
22765;DHT22;11549;50.852;3.816;2022-10-17T00:41:09;16.30;99.90
22765;DHT22;11549;50.852;3.816;2022-10-17T00:43:55;16.30;99.90
22765;DHT22;11549;50.852;3.816;2022-10-17T00:46:25;16.30;99.90
22765;DHT22;11549;50.852;3.816;2022-10-17T00:48:55;16.40;99.90
22765;DHT22;11549;50.852;3.816;2022-10-17T00:51:29;16.40;99.90
22765;DHT22;11549;50.852;3.816;2022-10-17T00:54:02;16.40;99.90
22765;DHT22;11549;50.852;3.816;2022-10-17T00:56:31;16.30;99.90
22765;DHT22;11549;50.852;3.816;2022-10-17T00:58:59;16.30;99.90
22765;DHT22;11549;50.852;3.816;2022-10-17T01:01:28;16.40;99.90
22765;DHT22;11549;50.852;3.816;2022-10-17T01:03:56;16.40;99.90
22765;DHT22;11549;50.852;3.816;2022-10-17T01:06:26;16.40;99.90
22765;DHT22;11549;50.852;3.816;2022-10-17T01:08:55;16.40;99.90
22765;DHT22;11549;50.852;3.816;2022-10-17T01:11:32;16.40;99.90
22765;DHT22;11549;50.852;3.816;2022-10-17T01:14:09;16.30;99.90
22765;DHT22;11549;50.852;3.816;2022-10-17T01:16:44;16.20;99.90
22765;DHT22;11549;50.852;3.816;2022-10-17T01:19:34;16.20;99.90
22765;DHT22;11549;50.852;3.816;2022-10-17T01:22:10;16.30;99.90
22765;DHT22;11549;50.852;3.816;2022-10-17T01:27:52;16.20;99.90
22765;DHT22;11549;50.852;3.816;2022-10-17T01:30:45;16.20;99.90
22765;DHT22;11549;50.852;3.816;2022-10-17T01:33:20;16.30;99.90
22765;DHT22;11549;50.852;3.816;2022-10-17T01:35:53;16.40;99.90
22765;DHT22;11549;50.852;3.816;2022-10-17T01:38:33;16.40;99.90
22765;DHT22;11549;50.852;3.816;2022-10-17T01:41:06;16.40;99.90
22765;DHT22;11549;50.852;3.816;2022-10-17T01:43:42;16.50;99.90
22765;DHT22;11549;50.852;3.816;2022-10-17T01:46:16;16.50;99.90
22765;DHT22;11549;50.852;3.816;2022-10-17T01:48:44;16.50;99.90
22765;DHT22;11549;50.852;3.816;2022-10-17T01:51:17;16.50;99.90
22765;DHT22;11549;50.852;3.816;2022-10-17T01:53:49;16.50;99.90
22765;DHT22;11549;50.852;3.816;2022-10-17T01:56:21;16.30;99.90
22765;DHT22;11549;50.852;3.816;2022-10-17T01:58:54;16.30;99.90
22765;DHT22;11549;50.852;3.816;2022-10-17T02:01:26;16.30;99.90
22765;DHT22;11549;50.852;3.816;2022-10-17T02:03:56;16.30;99.90
22765;DHT22;11549;50.852;3.816;2022-10-17T02:06:26;16.30;99.90
22765;DHT22;11549;50.852;3.816;2022-10-17T02:08:54;16.20;99.90
22765;DHT22;11549;50.852;3.816;2022-10-17T02:11:23;16.10;99.90
22765;DHT22;11549;50.852;3.816;2022-10-17T02:14:10;16.30;99.90
22765;DHT22;11549;50.852;3.816;2022-10-17T02:16:46;16.40;99.90
22765;DHT22;11549;50.852;3.816;2022-10-17T02:19:38;16.50;99.90
22765;DHT22;11549;50.852;3.816;2022-10-17T02:22:19;16.50;99.90
22765;DHT22;11549;50.852;3.816;2022-10-17T02:24:59;16.50;99.90
22765;DHT22;11549;50.852;3.816;2022-10-17T02:27:34;16.60;99.90
22765;DHT22;11549;50.852;3.816;2022-10-17T02:30:09;16.60;99.90
22765;DHT22;11549;50.852;3.816;2022-10-17T02:32:43;16.70;99.90
22765;DHT22;11549;50.852;3.816;2022-10-17T02:35:17;16.60;99.90
22765;DHT22;11549;50.852;3.816;2022-10-17T02:37:47;16.60;99.90
22765;DHT22;11549;50.852;3.816;2022-10-17T02:40:20;16.60;99.90
22765;DHT22;11549;50.852;3.816;2022-10-17T02:42:50;16.70;99.90
22765;DHT22;11549;50.852;3.816;2022-10-17T02:45:21;16.70;99.90
22765;DHT22;11549;50.852;3.816;2022-10-17T02:47:57;16.70;99.90
22765;DHT22;11549;50.852;3.816;2022-10-17T02:50:32;16.80;99.90
22765;DHT22;11549;50.852;3.816;2022-10-17T02:53:04;16.80;99.90
22765;DHT22;11549;50.852;3.816;2022-10-17T02:55:41;16.80;99.90
22765;DHT22;11549;50.852;3.816;2022-10-17T02:58:14;17.00;99.90
22765;DHT22;11549;50.852;3.816;2022-10-17T03:00:45;17.00;99.90
22765;DHT22;11549;50.852;3.816;2022-10-17T03:03:23;16.90;99.90
22765;DHT22;11549;50.852;3.816;2022-10-17T03:05:52;17.00;99.90
22765;DHT22;11549;50.852;3.816;2022-10-17T03:08:21;17.00;99.90
22765;DHT22;11549;50.852;3.816;2022-10-17T03:10:50;17.00;99.90
22765;DHT22;11549;50.852;3.816;2022-10-17T03:13:18;17.10;99.90
22765;DHT22;11549;50.852;3.816;2022-10-17T03:15:46;17.10;99.90
22765;DHT22;11549;50.852;3.816;2022-10-17T03:18:15;17.20;99.90
22765;DHT22;11549;50.852;3.816;2022-10-17T03:20:44;17.30;99.90
22765;DHT22;11549;50.852;3.816;2022-10-17T03:23:13;17.30;99.90
22765;DHT22;11549;50.852;3.816;2022-10-17T03:25:41;17.30;99.90
22765;DHT22;11549;50.852;3.816;2022-10-17T03:28:10;17.40;99.90
22765;DHT22;11549;50.852;3.816;2022-10-17T03:30:38;17.40;99.90
22765;DHT22;11549;50.852;3.816;2022-10-17T03:33:06;17.40;99.90
22765;DHT22;11549;50.852;3.816;2022-10-17T03:35:37;17.40;99.90
22765;DHT22;11549;50.852;3.816;2022-10-17T03:38:07;17.40;99.90
22765;DHT22;11549;50.852;3.816;2022-10-17T03:40:35;17.40;99.90
22765;DHT22;11549;50.852;3.816;2022-10-17T03:43:03;17.50;99.90
22765;DHT22;11549;50.852;3.816;2022-10-17T03:45:32;17.60;99.90
22765;DHT22;11549;50.852;3.816;2022-10-17T03:48:00;17.40;99.90
22765;DHT22;11549;50.852;3.816;2022-10-17T03:50:28;17.60;99.90
22765;DHT22;11549;50.852;3.816;2022-10-17T03:52:56;17.50;99.90
22765;DHT22;11549;50.852;3.816;2022-10-17T03:55:26;17.50;99.90
22765;DHT22;11549;50.852;3.816;2022-10-17T03:57:54;17.60;99.90
22765;DHT22;11549;50.852;3.816;2022-10-17T04:00:23;17.70;99.90
22765;DHT22;11549;50.852;3.816;2022-10-17T04:02:51;17.80;99.90
22765;DHT22;11549;50.852;3.816;2022-10-17T04:05:19;17.70;99.90
22765;DHT22;11549;50.852;3.816;2022-10-17T04:07:48;17.70;99.90
22765;DHT22;11549;50.852;3.816;2022-10-17T04:10:16;17.60;99.90
22765;DHT22;11549;50.852;3.816;2022-10-17T04:12:45;17.40;99.90
22765;DHT22;11549;50.852;3.816;2022-10-17T04:15:14;17.50;99.90
22765;DHT22;11549;50.852;3.816;2022-10-17T04:17:42;17.60;99.90
22765;DHT22;11549;50.852;3.816;2022-10-17T04:20:12;17.60;99.90
22765;DHT22;11549;50.852;3.816;2022-10-17T04:22:40;17.50;99.90
22765;DHT22;11549;50.852;3.816;2022-10-17T04:25:08;17.60;99.90
22765;DHT22;11549;50.852;3.816;2022-10-17T04:27:37;17.50;99.90
22765;DHT22;11549;50.852;3.816;2022-10-17T04:30:07;17.50;99.90
22765;DHT22;11549;50.852;3.816;2022-10-17T04:32:36;17.40;99.90
22765;DHT22;11549;50.852;3.816;2022-10-17T04:35:05;17.40;99.90
22765;DHT22;11549;50.852;3.816;2022-10-17T04:37:33;17.40;99.90
22765;DHT22;11549;50.852;3.816;2022-10-17T04:40:02;17.40;99.90
22765;DHT22;11549;50.852;3.816;2022-10-17T04:42:30;17.40;99.90
22765;DHT22;11549;50.852;3.816;2022-10-17T04:44:58;17.40;99.90
22765;DHT22;11549;50.852;3.816;2022-10-17T04:47:28;17.50;99.90
22765;DHT22;11549;50.852;3.816;2022-10-17T04:49:56;17.50;99.90
22765;DHT22;11549;50.852;3.816;2022-10-17T04:52:25;17.40;99.90
22765;DHT22;11549;50.852;3.816;2022-10-17T04:54:54;17.50;99.90
22765;DHT22;11549;50.852;3.816;2022-10-17T04:57:23;17.50;99.90
22765;DHT22;11549;50.852;3.816;2022-10-17T04:59:51;17.40;99.90
22765;DHT22;11549;50.852;3.816;2022-10-17T05:02:19;17.40;99.90
22765;DHT22;11549;50.852;3.816;2022-10-17T05:04:49;17.40;99.90
22765;DHT22;11549;50.852;3.816;2022-10-17T05:07:17;17.40;99.90
22765;DHT22;11549;50.852;3.816;2022-10-17T05:09:45;17.40;99.90
22765;DHT22;11549;50.852;3.816;2022-10-17T05:12:14;17.50;99.90
22765;DHT22;11549;50.852;3.816;2022-10-17T05:14:42;17.60;99.90
22765;DHT22;11549;50.852;3.816;2022-10-17T05:17:10;17.60;99.90
22765;DHT22;11549;50.852;3.816;2022-10-17T05:19:38;17.60;99.90
22765;DHT22;11549;50.852;3.816;2022-10-17T05:22:08;17.60;99.90
22765;DHT22;11549;50.852;3.816;2022-10-17T05:24:36;17.60;99.90
22765;DHT22;11549;50.852;3.816;2022-10-17T05:27:05;17.60;99.90
22765;DHT22;11549;50.852;3.816;2022-10-17T05:29:33;17.60;99.90
22765;DHT22;11549;50.852;3.816;2022-10-17T05:32:02;17.60;99.90
22765;DHT22;11549;50.852;3.816;2022-10-17T05:34:32;17.70;99.90
22765;DHT22;11549;50.852;3.816;2022-10-17T05:37:01;17.70;99.90
22765;DHT22;11549;50.852;3.816;2022-10-17T05:39:30;17.70;99.90
22765;DHT22;11549;50.852;3.816;2022-10-17T05:41:59;17.70;99.90
22765;DHT22;11549;50.852;3.816;2022-10-17T05:44:27;17.80;99.90
22765;DHT22;11549;50.852;3.816;2022-10-17T05:46:55;17.80;99.90
22765;DHT22;11549;50.852;3.816;2022-10-17T05:49:24;17.80;99.90
22765;DHT22;11549;50.852;3.816;2022-10-17T05:52:10;17.70;99.90
22765;DHT22;11549;50.852;3.816;2022-10-17T05:54:40;17.70;99.90
22765;DHT22;11549;50.852;3.816;2022-10-17T05:57:08;17.90;99.90
22765;DHT22;11549;50.852;3.816;2022-10-17T05:59:36;17.80;99.90
22765;DHT22;11549;50.852;3.816;2022-10-17T06:02:05;17.80;99.90
22765;DHT22;11549;50.852;3.816;2022-10-17T06:04:33;17.80;99.90
22765;DHT22;11549;50.852;3.816;2022-10-17T06:07:01;17.80;99.90
22765;DHT22;11549;50.852;3.816;2022-10-17T06:09:30;17.90;99.90
22765;DHT22;11549;50.852;3.816;2022-10-17T06:11:59;17.90;99.90
22765;DHT22;11549;50.852;3.816;2022-10-17T06:14:28;17.90;99.90
22765;DHT22;11549;50.852;3.816;2022-10-17T06:16:56;17.80;99.90
22765;DHT22;11549;50.852;3.816;2022-10-17T06:19:25;17.80;99.90
22765;DHT22;11549;50.852;3.816;2022-10-17T06:21:53;17.80;99.90
22765;DHT22;11549;50.852;3.816;2022-10-17T06:24:21;17.80;99.90
22765;DHT22;11549;50.852;3.816;2022-10-17T06:26:49;17.80;99.90
22765;DHT22;11549;50.852;3.816;2022-10-17T06:29:19;17.80;99.90
22765;DHT22;11549;50.852;3.816;2022-10-17T06:31:48;17.80;99.90
22765;DHT22;11549;50.852;3.816;2022-10-17T06:34:16;17.80;99.90
22765;DHT22;11549;50.852;3.816;2022-10-17T06:36:44;17.80;99.90
22765;DHT22;11549;50.852;3.816;2022-10-17T06:39:13;17.70;99.90
22765;DHT22;11549;50.852;3.816;2022-10-17T06:41:41;17.60;99.90
22765;DHT22;11549;50.852;3.816;2022-10-17T06:44:10;17.60;99.90
22765;DHT22;11549;50.852;3.816;2022-10-17T06:46:40;17.50;99.90
22765;DHT22;11549;50.852;3.816;2022-10-17T06:49:09;17.50;99.90
22765;DHT22;11549;50.852;3.816;2022-10-17T06:51:37;17.50;99.90
22765;DHT22;11549;50.852;3.816;2022-10-17T06:54:06;17.50;99.90
22765;DHT22;11549;50.852;3.816;2022-10-17T06:56:34;17.50;99.90
22765;DHT22;11549;50.852;3.816;2022-10-17T06:59:02;17.50;99.90
22765;DHT22;11549;50.852;3.816;2022-10-17T07:01:31;17.50;99.90
22765;DHT22;11549;50.852;3.816;2022-10-17T07:04:01;17.60;99.90
22765;DHT22;11549;50.852;3.816;2022-10-17T07:06:30;17.40;99.90
22765;DHT22;11549;50.852;3.816;2022-10-17T07:08:59;17.40;99.90
22765;DHT22;11549;50.852;3.816;2022-10-17T07:11:28;17.50;99.90
22765;DHT22;11549;50.852;3.816;2022-10-17T07:13:56;17.50;99.90
22765;DHT22;11549;50.852;3.816;2022-10-17T07:16:25;17.50;99.90
22765;DHT22;11549;50.852;3.816;2022-10-17T07:18:54;17.50;99.90
22765;DHT22;11549;50.852;3.816;2022-10-17T07:21:23;17.50;99.90
22765;DHT22;11549;50.852;3.816;2022-10-17T07:23:52;17.60;99.90
22765;DHT22;11549;50.852;3.816;2022-10-17T07:26:21;17.60;99.90
22765;DHT22;11549;50.852;3.816;2022-10-17T07:28:52;17.50;99.90
22765;DHT22;11549;50.852;3.816;2022-10-17T07:31:22;17.60;99.90
22765;DHT22;11549;50.852;3.816;2022-10-17T07:33:50;17.60;99.90
22765;DHT22;11549;50.852;3.816;2022-10-17T07:36:19;17.60;99.90
22765;DHT22;11549;50.852;3.816;2022-10-17T07:38:49;17.50;99.90
22765;DHT22;11549;50.852;3.816;2022-10-17T07:41:17;17.60;99.90
22765;DHT22;11549;50.852;3.816;2022-10-17T07:43:48;17.50;99.90
22765;DHT22;11549;50.852;3.816;2022-10-17T07:46:17;17.50;99.90
22765;DHT22;11549;50.852;3.816;2022-10-17T07:48:45;17.60;99.90
22765;DHT22;11549;50.852;3.816;2022-10-17T07:51:15;17.60;99.90
22765;DHT22;11549;50.852;3.816;2022-10-17T07:53:44;17.60;99.90
22765;DHT22;11549;50.852;3.816;2022-10-17T07:56:16;17.60;99.90
22765;DHT22;11549;50.852;3.816;2022-10-17T07:58:44;17.50;99.90
22765;DHT22;11549;50.852;3.816;2022-10-17T08:01:14;17.50;99.90
22765;DHT22;11549;50.852;3.816;2022-10-17T08:03:44;17.50;99.90
22765;DHT22;11549;50.852;3.816;2022-10-17T08:06:12;17.50;99.90
22765;DHT22;11549;50.852;3.816;2022-10-17T08:08:41;17.50;99.90
22765;DHT22;11549;50.852;3.816;2022-10-17T08:11:12;17.40;99.90
22765;DHT22;11549;50.852;3.816;2022-10-17T08:13:42;17.40;99.90
22765;DHT22;11549;50.852;3.816;2022-10-17T08:16:12;17.40;99.90
22765;DHT22;11549;50.852;3.816;2022-10-17T08:18:41;17.30;99.90
22765;DHT22;11549;50.852;3.816;2022-10-17T08:21:11;17.30;99.90
22765;DHT22;11549;50.852;3.816;2022-10-17T08:23:40;17.30;99.90
22765;DHT22;11549;50.852;3.816;2022-10-17T08:26:09;17.20;99.90
22765;DHT22;11549;50.852;3.816;2022-10-17T08:28:39;17.20;99.90
22765;DHT22;11549;50.852;3.816;2022-10-17T08:31:11;17.20;99.90
22765;DHT22;11549;50.852;3.816;2022-10-17T08:33:41;17.20;99.90
22765;DHT22;11549;50.852;3.816;2022-10-17T08:36:11;17.20;99.90
22765;DHT22;11549;50.852;3.816;2022-10-17T08:38:39;17.20;99.90
22765;DHT22;11549;50.852;3.816;2022-10-17T08:41:14;17.30;99.90
22765;DHT22;11549;50.852;3.816;2022-10-17T08:43:58;17.30;99.90
22765;DHT22;11549;50.852;3.816;2022-10-17T08:46:31;17.40;99.90
22765;DHT22;11549;50.852;3.816;2022-10-17T08:49:02;17.60;99.90
22765;DHT22;11549;50.852;3.816;2022-10-17T08:51:42;17.60;99.90
22765;DHT22;11549;50.852;3.816;2022-10-17T08:54:17;17.60;99.90
22765;DHT22;11549;50.852;3.816;2022-10-17T08:56:48;17.70;99.90
22765;DHT22;11549;50.852;3.816;2022-10-17T08:59:26;17.70;99.90
22765;DHT22;11549;50.852;3.816;2022-10-17T09:02:00;17.70;99.90
22765;DHT22;11549;50.852;3.816;2022-10-17T09:04:45;17.80;99.90
22765;DHT22;11549;50.852;3.816;2022-10-17T09:07:21;17.80;99.90
22765;DHT22;11549;50.852;3.816;2022-10-17T09:09:59;17.80;99.90
22765;DHT22;11549;50.852;3.816;2022-10-17T09:12:35;17.80;99.90
22765;DHT22;11549;50.852;3.816;2022-10-17T09:15:21;17.90;99.90
22765;DHT22;11549;50.852;3.816;2022-10-17T09:17:59;18.00;99.90
22765;DHT22;11549;50.852;3.816;2022-10-17T09:20:32;18.00;99.90
22765;DHT22;11549;50.852;3.816;2022-10-17T09:23:04;18.00;99.90
22765;DHT22;11549;50.852;3.816;2022-10-17T09:25:40;17.90;99.90
22765;DHT22;11549;50.852;3.816;2022-10-17T09:28:13;18.00;99.90
22765;DHT22;11549;50.852;3.816;2022-10-17T09:30:44;18.00;99.90
22765;DHT22;11549;50.852;3.816;2022-10-17T09:33:16;18.00;99.90
22765;DHT22;11549;50.852;3.816;2022-10-17T09:36:09;18.00;99.90
22765;DHT22;11549;50.852;3.816;2022-10-17T09:38:40;18.10;99.90
22765;DHT22;11549;50.852;3.816;2022-10-17T09:41:16;18.20;99.90
22765;DHT22;11549;50.852;3.816;2022-10-17T09:44:17;18.20;99.90
22765;DHT22;11549;50.852;3.816;2022-10-17T09:46:56;18.20;99.90
22765;DHT22;11549;50.852;3.816;2022-10-17T09:49:31;18.20;99.90
22765;DHT22;11549;50.852;3.816;2022-10-17T09:52:01;18.20;99.90
22765;DHT22;11549;50.852;3.816;2022-10-17T09:54:39;18.30;99.90
22765;DHT22;11549;50.852;3.816;2022-10-17T09:57:10;18.20;99.90
22765;DHT22;11549;50.852;3.816;2022-10-17T09:59:40;18.20;99.90
22765;DHT22;11549;50.852;3.816;2022-10-17T10:02:18;18.20;99.90
22765;DHT22;11549;50.852;3.816;2022-10-17T10:05:00;18.30;99.90
22765;DHT22;11549;50.852;3.816;2022-10-17T10:07:34;18.30;99.90
22765;DHT22;11549;50.852;3.816;2022-10-17T10:10:05;18.30;99.90
22765;DHT22;11549;50.852;3.816;2022-10-17T10:12:35;18.30;99.90
22765;DHT22;11549;50.852;3.816;2022-10-17T10:15:32;18.30;99.90
22765;DHT22;11549;50.852;3.816;2022-10-17T10:18:01;18.40;99.90
22765;DHT22;11549;50.852;3.816;2022-10-17T10:20:33;18.40;99.90
22765;DHT22;11549;50.852;3.816;2022-10-17T10:23:11;18.50;99.90
22765;DHT22;11549;50.852;3.816;2022-10-17T10:25:51;18.60;99.90
22765;DHT22;11549;50.852;3.816;2022-10-17T10:28:24;18.60;99.90
22765;DHT22;11549;50.852;3.816;2022-10-17T10:30:54;18.60;99.90
22765;DHT22;11549;50.852;3.816;2022-10-17T10:33:26;18.60;99.90
22765;DHT22;11549;50.852;3.816;2022-10-17T10:35:57;18.70;99.90
22765;DHT22;11549;50.852;3.816;2022-10-17T10:38:28;19.00;99.90
22765;DHT22;11549;50.852;3.816;2022-10-17T10:41:02;19.30;99.90
22765;DHT22;11549;50.852;3.816;2022-10-17T10:43:34;19.50;99.90
22765;DHT22;11549;50.852;3.816;2022-10-17T10:46:05;19.70;99.90
22765;DHT22;11549;50.852;3.816;2022-10-17T10:48:50;19.80;99.90
22765;DHT22;11549;50.852;3.816;2022-10-17T10:51:23;19.90;99.90
22765;DHT22;11549;50.852;3.816;2022-10-17T10:53:58;19.80;99.90
22765;DHT22;11549;50.852;3.816;2022-10-17T10:56:32;19.80;99.90
22765;DHT22;11549;50.852;3.816;2022-10-17T10:59:03;19.80;99.90
22765;DHT22;11549;50.852;3.816;2022-10-17T11:01:42;19.80;99.90
22765;DHT22;11549;50.852;3.816;2022-10-17T11:04:32;19.70;99.90
22765;DHT22;11549;50.852;3.816;2022-10-17T11:07:10;19.80;99.90
22765;DHT22;11549;50.852;3.816;2022-10-17T11:09:47;19.80;99.90
22765;DHT22;11549;50.852;3.816;2022-10-17T11:12:26;19.70;99.90
22765;DHT22;11549;50.852;3.816;2022-10-17T11:15:00;19.70;99.90
22765;DHT22;11549;50.852;3.816;2022-10-17T11:17:35;19.70;99.90
22765;DHT22;11549;50.852;3.816;2022-10-17T11:20:14;19.70;99.90
22765;DHT22;11549;50.852;3.816;2022-10-17T11:22:48;19.80;99.90
22765;DHT22;11549;50.852;3.816;2022-10-17T11:25:30;19.80;99.90
22765;DHT22;11549;50.852;3.816;2022-10-17T11:27:59;19.80;99.90
22765;DHT22;11549;50.852;3.816;2022-10-17T11:30:41;19.80;99.90
22765;DHT22;11549;50.852;3.816;2022-10-17T11:33:22;19.80;99.90
22765;DHT22;11549;50.852;3.816;2022-10-17T11:35:54;19.70;99.90
22765;DHT22;11549;50.852;3.816;2022-10-17T11:38:34;19.70;99.90
22765;DHT22;11549;50.852;3.816;2022-10-17T11:41:05;19.70;99.90
22765;DHT22;11549;50.852;3.816;2022-10-17T11:43:36;19.80;99.90
22765;DHT22;11549;50.852;3.816;2022-10-17T11:46:13;19.80;99.90
22765;DHT22;11549;50.852;3.816;2022-10-17T11:48:48;19.80;99.90
22765;DHT22;11549;50.852;3.816;2022-10-17T11:51:18;19.80;99.90
22765;DHT22;11549;50.852;3.816;2022-10-17T11:54:10;19.80;99.90
22765;DHT22;11549;50.852;3.816;2022-10-17T11:56:47;19.80;99.90
22765;DHT22;11549;50.852;3.816;2022-10-17T11:59:31;19.80;99.90
22765;DHT22;11549;50.852;3.816;2022-10-17T12:02:13;19.80;99.90
22765;DHT22;11549;50.852;3.816;2022-10-17T12:04:52;19.70;99.90
22765;DHT22;11549;50.852;3.816;2022-10-17T12:07:35;19.70;99.90
22765;DHT22;11549;50.852;3.816;2022-10-17T12:10:29;19.90;99.90
22765;DHT22;11549;50.852;3.816;2022-10-17T12:13:46;19.80;99.90
22765;DHT22;11549;50.852;3.816;2022-10-17T12:16:40;19.80;99.90
22765;DHT22;11549;50.852;3.816;2022-10-17T12:19:31;19.70;99.90
22765;DHT22;11549;50.852;3.816;2022-10-17T12:22:14;19.70;99.90
22765;DHT22;11549;50.852;3.816;2022-10-17T12:24:53;19.70;99.90
22765;DHT22;11549;50.852;3.816;2022-10-17T12:30:20;19.80;99.90
22765;DHT22;11549;50.852;3.816;2022-10-17T12:33:01;19.70;99.90
22765;DHT22;11549;50.852;3.816;2022-10-17T12:35:34;19.70;99.90
22765;DHT22;11549;50.852;3.816;2022-10-17T12:38:17;19.80;99.90
22765;DHT22;11549;50.852;3.816;2022-10-17T12:40:51;19.80;99.90
22765;DHT22;11549;50.852;3.816;2022-10-17T12:46:57;19.70;99.90
22765;DHT22;11549;50.852;3.816;2022-10-17T12:49:46;19.80;99.90
22765;DHT22;11549;50.852;3.816;2022-10-17T12:52:23;19.80;99.90
22765;DHT22;11549;50.852;3.816;2022-10-17T12:57:49;19.90;99.90
22765;DHT22;11549;50.852;3.816;2022-10-17T13:00:22;20.00;99.90
22765;DHT22;11549;50.852;3.816;2022-10-17T13:02:54;20.00;99.90
22765;DHT22;11549;50.852;3.816;2022-10-17T13:05:28;20.00;99.90
22765;DHT22;11549;50.852;3.816;2022-10-17T13:07:59;20.10;99.90
22765;DHT22;11549;50.852;3.816;2022-10-17T13:10:29;20.20;99.90
22765;DHT22;11549;50.852;3.816;2022-10-17T13:13:05;20.30;99.90
22765;DHT22;11549;50.852;3.816;2022-10-17T13:15:34;20.10;99.90
22765;DHT22;11549;50.852;3.816;2022-10-17T13:18:05;20.00;99.90
22765;DHT22;11549;50.852;3.816;2022-10-17T13:20:33;20.10;99.90
22765;DHT22;11549;50.852;3.816;2022-10-17T13:23:01;20.10;99.90
22765;DHT22;11549;50.852;3.816;2022-10-17T13:25:30;20.20;99.90
22765;DHT22;11549;50.852;3.816;2022-10-17T13:28:06;20.20;99.90
22765;DHT22;11549;50.852;3.816;2022-10-17T13:30:38;20.30;99.90
22765;DHT22;11549;50.852;3.816;2022-10-17T13:33:26;20.40;99.90
22765;DHT22;11549;50.852;3.816;2022-10-17T13:35:56;20.50;99.90
22765;DHT22;11549;50.852;3.816;2022-10-17T13:38:30;20.40;99.90
22765;DHT22;11549;50.852;3.816;2022-10-17T13:41:10;20.40;99.90
22765;DHT22;11549;50.852;3.816;2022-10-17T13:43:59;20.40;99.90
22765;DHT22;11549;50.852;3.816;2022-10-17T13:46:30;20.50;99.90
22765;DHT22;11549;50.852;3.816;2022-10-17T13:49:14;20.60;99.90
22765;DHT22;11549;50.852;3.816;2022-10-17T13:51:45;20.60;99.90
22765;DHT22;11549;50.852;3.816;2022-10-17T13:54:18;20.70;99.90
22765;DHT22;11549;50.852;3.816;2022-10-17T13:56:55;20.60;99.90
22765;DHT22;11549;50.852;3.816;2022-10-17T13:59:26;20.60;99.90
22765;DHT22;11549;50.852;3.816;2022-10-17T14:01:55;20.70;99.90
22765;DHT22;11549;50.852;3.816;2022-10-17T14:04:25;20.70;99.90
22765;DHT22;11549;50.852;3.816;2022-10-17T14:06:53;20.80;99.90
22765;DHT22;11549;50.852;3.816;2022-10-17T14:09:24;20.70;99.90
22765;DHT22;11549;50.852;3.816;2022-10-17T14:11:58;20.80;99.90
22765;DHT22;11549;50.852;3.816;2022-10-17T14:14:28;20.60;99.90
22765;DHT22;11549;50.852;3.816;2022-10-17T14:17:21;20.60;99.90
22765;DHT22;11549;50.852;3.816;2022-10-17T14:19:54;20.70;99.90
22765;DHT22;11549;50.852;3.816;2022-10-17T14:22:42;20.70;99.90
22765;DHT22;11549;50.852;3.816;2022-10-17T14:25:29;20.70;99.90
22765;DHT22;11549;50.852;3.816;2022-10-17T14:28:01;20.50;99.90
22765;DHT22;11549;50.852;3.816;2022-10-17T14:30:36;20.50;99.90
22765;DHT22;11549;50.852;3.816;2022-10-17T14:33:23;20.40;99.90
22765;DHT22;11549;50.852;3.816;2022-10-17T14:35:55;20.50;99.90
22765;DHT22;11549;50.852;3.816;2022-10-17T14:38:24;20.40;99.90
22765;DHT22;11549;50.852;3.816;2022-10-17T14:40:55;20.30;99.90
22765;DHT22;11549;50.852;3.816;2022-10-17T14:43:51;20.30;99.90
22765;DHT22;11549;50.852;3.816;2022-10-17T14:46:20;20.30;99.90
22765;DHT22;11549;50.852;3.816;2022-10-17T14:48:55;20.40;99.90
22765;DHT22;11549;50.852;3.816;2022-10-17T14:51:25;20.40;99.90
22765;DHT22;11549;50.852;3.816;2022-10-17T14:54:18;20.30;99.90
22765;DHT22;11549;50.852;3.816;2022-10-17T14:56:50;20.20;99.90
22765;DHT22;11549;50.852;3.816;2022-10-17T14:59:18;20.20;99.90
22765;DHT22;11549;50.852;3.816;2022-10-17T15:02:10;20.20;99.90
22765;DHT22;11549;50.852;3.816;2022-10-17T15:04:38;20.30;99.90
22765;DHT22;11549;50.852;3.816;2022-10-17T15:07:11;20.20;99.90
22765;DHT22;11549;50.852;3.816;2022-10-17T15:09:40;20.10;99.90
22765;DHT22;11549;50.852;3.816;2022-10-17T15:12:14;20.10;99.90
22765;DHT22;11549;50.852;3.816;2022-10-17T15:14:43;20.00;99.90
22765;DHT22;11549;50.852;3.816;2022-10-17T15:17:14;20.00;99.90
22765;DHT22;11549;50.852;3.816;2022-10-17T15:19:44;20.00;99.90
22765;DHT22;11549;50.852;3.816;2022-10-17T15:22:14;20.00;99.90
22765;DHT22;11549;50.852;3.816;2022-10-17T15:24:44;19.90;99.90
22765;DHT22;11549;50.852;3.816;2022-10-17T15:27:14;19.80;99.90
22765;DHT22;11549;50.852;3.816;2022-10-17T15:29:43;19.70;99.90
22765;DHT22;11549;50.852;3.816;2022-10-17T15:32:11;19.70;99.90
22765;DHT22;11549;50.852;3.816;2022-10-17T15:34:40;19.60;99.90
22765;DHT22;11549;50.852;3.816;2022-10-17T15:37:17;19.60;99.90
22765;DHT22;11549;50.852;3.816;2022-10-17T15:39:49;19.60;99.90
22765;DHT22;11549;50.852;3.816;2022-10-17T15:42:20;19.60;99.90
22765;DHT22;11549;50.852;3.816;2022-10-17T15:44:49;19.60;99.90
22765;DHT22;11549;50.852;3.816;2022-10-17T15:47:23;19.40;99.90
22765;DHT22;11549;50.852;3.816;2022-10-17T15:49:53;19.50;99.90
22765;DHT22;11549;50.852;3.816;2022-10-17T15:52:23;19.50;99.90
22765;DHT22;11549;50.852;3.816;2022-10-17T15:54:52;19.40;99.90
22765;DHT22;11549;50.852;3.816;2022-10-17T15:57:27;19.50;99.90
22765;DHT22;11549;50.852;3.816;2022-10-17T15:59:58;19.50;99.90
22765;DHT22;11549;50.852;3.816;2022-10-17T16:02:27;19.40;99.90
22765;DHT22;11549;50.852;3.816;2022-10-17T16:04:55;19.50;99.90
22765;DHT22;11549;50.852;3.816;2022-10-17T16:07:25;19.40;99.90
22765;DHT22;11549;50.852;3.816;2022-10-17T16:09:54;19.40;99.90
22765;DHT22;11549;50.852;3.816;2022-10-17T16:12:26;19.30;99.90
22765;DHT22;11549;50.852;3.816;2022-10-17T16:14:57;19.20;99.90
22765;DHT22;11549;50.852;3.816;2022-10-17T16:17:25;19.20;99.90